sensor_id;sensor_type;location;lat;lon;timestamp;pressure;altitude;pressure_sealevel;temperature;humidity
21588;BME280;10956;48.878;13.316;2023-02-11T00:00:04;95937.63;;;-4.28;100.00
21588;BME280;10956;48.878;13.316;2023-02-11T00:02:31;95934.63;;;-4.33;100.00
21588;BME280;10956;48.878;13.316;2023-02-11T00:04:56;95940.03;;;-4.36;100.00
21588;BME280;10956;48.878;13.316;2023-02-11T00:07:21;95940.31;;;-4.39;100.00
21588;BME280;10956;48.878;13.316;2023-02-11T00:09:47;95935.41;;;-4.42;100.00
21588;BME280;10956;48.878;13.316;2023-02-11T00:12:12;95939.19;;;-4.46;100.00
21588;BME280;10956;48.878;13.316;2023-02-11T00:14:38;95940.00;;;-4.45;100.00
21588;BME280;10956;48.878;13.316;2023-02-11T00:17:03;95929.16;;;-4.49;100.00
21588;BME280;10956;48.878;13.316;2023-02-11T00:19:28;95931.22;;;-4.43;100.00
21588;BME280;10956;48.878;13.316;2023-02-11T00:21:54;95925.66;;;-4.38;100.00
21588;BME280;10956;48.878;13.316;2023-02-11T00:24:19;95921.34;;;-4.38;100.00
21588;BME280;10956;48.878;13.316;2023-02-11T00:26:44;95919.97;;;-4.42;100.00
21588;BME280;10956;48.878;13.316;2023-02-11T00:29:10;95923.22;;;-4.40;100.00
21588;BME280;10956;48.878;13.316;2023-02-11T00:31:35;95925.66;;;-4.38;100.00
21588;BME280;10956;48.878;13.316;2023-02-11T00:34:01;95933.22;;;-4.46;100.00
21588;BME280;10956;48.878;13.316;2023-02-11T00:36:27;95932.69;;;-4.50;100.00
21588;BME280;10956;48.878;13.316;2023-02-11T00:38:54;95932.94;;;-4.53;100.00
21588;BME280;10956;48.878;13.316;2023-02-11T00:41:20;95927.13;;;-4.55;100.00
21588;BME280;10956;48.878;13.316;2023-02-11T00:43:47;95931.31;;;-4.54;100.00
21588;BME280;10956;48.878;13.316;2023-02-11T00:46:13;95919.13;;;-4.52;100.00
21588;BME280;10956;48.878;13.316;2023-02-11T00:48:39;95925.91;;;-4.51;100.00
21588;BME280;10956;48.878;13.316;2023-02-11T00:51:05;95927.53;;;-4.50;100.00
21588;BME280;10956;48.878;13.316;2023-02-11T00:53:31;95934.03;;;-4.46;100.00
21588;BME280;10956;48.878;13.316;2023-02-11T00:55:57;95932.69;;;-4.50;100.00
21588;BME280;10956;48.878;13.316;2023-02-11T00:58:23;95936.97;;;-4.60;100.00
21588;BME280;10956;48.878;13.316;2023-02-11T01:00:48;95931.28;;;-4.64;100.00
21588;BME280;10956;48.878;13.316;2023-02-11T01:03:14;95929.09;;;-4.68;100.00
21588;BME280;10956;48.878;13.316;2023-02-11T01:05:39;95926.28;;;-4.65;100.00
21588;BME280;10956;48.878;13.316;2023-02-11T01:08:05;95925.31;;;-4.64;100.00
21588;BME280;10956;48.878;13.316;2023-02-11T01:10:31;95923.19;;;-4.59;100.00
21588;BME280;10956;48.878;13.316;2023-02-11T01:12:57;95921.53;;;-4.60;100.00
21588;BME280;10956;48.878;13.316;2023-02-11T01:15:22;95915.28;;;-4.67;100.00
21588;BME280;10956;48.878;13.316;2023-02-11T01:17:48;95905.94;;;-4.68;100.00
21588;BME280;10956;48.878;13.316;2023-02-11T01:20:20;95911.78;;;-4.66;100.00
21588;BME280;10956;48.878;13.316;2023-02-11T01:22:46;95912.28;;;-4.72;100.00
21588;BME280;10956;48.878;13.316;2023-02-11T01:25:12;95907.66;;;-4.78;100.00
21588;BME280;10956;48.878;13.316;2023-02-11T01:27:37;95904.41;;;-4.80;100.00
21588;BME280;10956;48.878;13.316;2023-02-11T01:30:05;95905.34;;;-4.81;100.00
21588;BME280;10956;48.878;13.316;2023-02-11T01:32:31;95903.59;;;-4.81;100.00
21588;BME280;10956;48.878;13.316;2023-02-11T01:34:56;95904.72;;;-4.74;100.00
21588;BME280;10956;48.878;13.316;2023-02-11T01:37:22;95896.34;;;-4.66;100.00
21588;BME280;10956;48.878;13.316;2023-02-11T01:39:47;95886.09;;;-4.57;100.00
21588;BME280;10956;48.878;13.316;2023-02-11T01:42:18;95885.56;;;-4.50;100.00
21588;BME280;10956;48.878;13.316;2023-02-11T01:44:44;95880.28;;;-4.49;100.00
21588;BME280;10956;48.878;13.316;2023-02-11T01:47:09;95880.41;;;-4.50;100.00
21588;BME280;10956;48.878;13.316;2023-02-11T01:49:38;95880.94;;;-4.57;100.00
21588;BME280;10956;48.878;13.316;2023-02-11T01:54:42;95869.97;;;-4.59;100.00
21588;BME280;10956;48.878;13.316;2023-02-11T01:57:29;95869.56;;;-4.54;100.00
21588;BME280;10956;48.878;13.316;2023-02-11T02:00:08;95870.13;;;-4.50;100.00
21588;BME280;10956;48.878;13.316;2023-02-11T02:02:39;95861.16;;;-4.56;100.00
21588;BME280;10956;48.878;13.316;2023-02-11T02:05:22;95859.13;;;-4.62;100.00
21588;BME280;10956;48.878;13.316;2023-02-11T02:07:55;95862.34;;;-4.70;100.00
21588;BME280;10956;48.878;13.316;2023-02-11T02:10:25;95863.56;;;-4.74;100.00
21588;BME280;10956;48.878;13.316;2023-02-11T02:12:51;95857.59;;;-4.74;100.00
21588;BME280;10956;48.878;13.316;2023-02-11T02:15:49;95849.63;;;-4.71;100.00
21588;BME280;10956;48.878;13.316;2023-02-11T02:40:09;95822.72;;;-4.48;100.00
21588;BME280;10956;48.878;13.316;2023-02-11T02:42:37;95822.84;;;-4.49;100.00
21588;BME280;10956;48.878;13.316;2023-02-11T02:45:06;95820.28;;;-4.49;100.00
21588;BME280;10956;48.878;13.316;2023-02-11T02:47:32;95822.72;;;-4.48;100.00
21588;BME280;10956;48.878;13.316;2023-02-11T02:49:57;95821.63;;;-4.55;100.00
21588;BME280;10956;48.878;13.316;2023-02-11T02:52:35;95824.19;;;-4.55;100.00
21588;BME280;10956;48.878;13.316;2023-02-11T02:55:11;95823.94;;;-4.52;100.00
21588;BME280;10956;48.878;13.316;2023-02-11T02:58:06;95831.13;;;-4.46;100.00
21588;BME280;10956;48.878;13.316;2023-02-11T03:00:40;95826.91;;;-4.47;100.00
21588;BME280;10956;48.878;13.316;2023-02-11T03:06:04;95821.38;;;-4.33;100.00
21588;BME280;10956;48.878;13.316;2023-02-11T03:08:49;95818.94;;;-4.25;100.00
21588;BME280;10956;48.878;13.316;2023-02-11T03:11:19;95815.69;;;-4.27;100.00
21588;BME280;10956;48.878;13.316;2023-02-11T03:13:47;95812.97;;;-4.25;100.00
21588;BME280;10956;48.878;13.316;2023-02-11T03:16:18;95820.03;;;-4.17;100.00
21588;BME280;10956;48.878;13.316;2023-02-11T03:18:50;95826.13;;;-4.18;100.00
21588;BME280;10956;48.878;13.316;2023-02-11T03:21:17;95829.09;;;-4.33;100.00
21588;BME280;10956;48.878;13.316;2023-02-11T03:23:55;95819.34;;;-4.39;100.00
21588;BME280;10956;48.878;13.316;2023-02-11T03:26:37;95819.22;;;-4.37;100.00
21588;BME280;10956;48.878;13.316;2023-02-11T03:32:31;95802.13;;;-4.29;100.00
21588;BME280;10956;48.878;13.316;2023-02-11T03:35:11;95805.38;;;-4.27;100.00
21588;BME280;10956;48.878;13.316;2023-02-11T03:38:16;95798.34;;;-4.25;100.00
21588;BME280;10956;48.878;13.316;2023-02-11T03:40:44;95808.09;;;-4.28;100.00
21588;BME280;10956;48.878;13.316;2023-02-11T03:43:28;95810.81;;;-4.30;100.00
21588;BME280;10956;48.878;13.316;2023-02-11T03:45:55;95809.47;;;-4.34;100.00
21588;BME280;10956;48.878;13.316;2023-02-11T03:48:27;95817.03;;;-4.42;100.00
21588;BME280;10956;48.878;13.316;2023-02-11T03:50:57;95816.75;;;-4.48;100.00
21588;BME280;10956;48.878;13.316;2023-02-11T03:53:24;95821.09;;;-4.49;100.00
21588;BME280;10956;48.878;13.316;2023-02-11T03:55:51;95815.69;;;-4.46;100.00
21588;BME280;10956;48.878;13.316;2023-02-11T03:58:18;95827.06;;;-4.39;100.00
21588;BME280;10956;48.878;13.316;2023-02-11T04:00:44;95825.97;;;-4.36;100.00
21588;BME280;10956;48.878;13.316;2023-02-11T04:03:11;95817.72;;;-4.40;100.00
21588;BME280;10956;48.878;13.316;2023-02-11T04:05:37;95817.19;;;-4.34;100.00
21588;BME280;10956;48.878;13.316;2023-02-11T04:08:03;95828.28;;;-4.33;100.00
21588;BME280;10956;48.878;13.316;2023-02-11T04:10:29;95822.72;;;-4.29;100.00
21588;BME280;10956;48.878;13.316;2023-02-11T04:12:54;95821.91;;;-4.29;100.00
21588;BME280;10956;48.878;13.316;2023-02-11T04:15:20;95824.91;;;-4.24;100.00
21588;BME280;10956;48.878;13.316;2023-02-11T04:17:45;95812.97;;;-4.15;100.00
21588;BME280;10956;48.878;13.316;2023-02-11T04:20:11;95811.22;;;-4.05;100.00
21588;BME280;10956;48.878;13.316;2023-02-11T04:22:37;95813.66;;;-3.94;100.00
21588;BME280;10956;48.878;13.316;2023-02-11T04:25:04;95812.69;;;-3.83;100.00
21588;BME280;10956;48.878;13.316;2023-02-11T04:27:30;95804.69;;;-3.80;100.00
21588;BME280;10956;48.878;13.316;2023-02-11T04:29:55;95807.25;;;-3.80;100.00
21588;BME280;10956;48.878;13.316;2023-02-11T04:32:20;95791.28;;;-3.94;100.00
21588;BME280;10956;48.878;13.316;2023-02-11T04:34:46;95791.44;;;-4.05;100.00
21588;BME280;10956;48.878;13.316;2023-02-11T04:37:12;95789.94;;;-4.07;100.00
21588;BME280;10956;48.878;13.316;2023-02-11T04:39:38;95791.56;;;-4.06;100.00
21588;BME280;10956;48.878;13.316;2023-02-11T04:42:03;95795.91;;;-4.07;100.00
21588;BME280;10956;48.878;13.316;2023-02-11T04:44:29;95806.47;;;-4.10;100.00
21588;BME280;10956;48.878;13.316;2023-02-11T04:46:55;95806.75;;;-4.22;100.00
21588;BME280;10956;48.878;13.316;2023-02-11T04:49:21;95799.44;;;-4.27;100.00
21588;BME280;10956;48.878;13.316;2023-02-11T04:51:47;95799.44;;;-4.27;100.00
21588;BME280;10956;48.878;13.316;2023-02-11T04:54:12;95804.59;;;-4.17;100.00
21588;BME280;10956;48.878;13.316;2023-02-11T04:56:38;95806.59;;;-4.11;100.00
21588;BME280;10956;48.878;13.316;2023-02-11T04:59:05;95797.81;;;-4.09;100.00
21588;BME280;10956;48.878;13.316;2023-02-11T05:01:31;95791.44;;;-4.05;100.00
21588;BME280;10956;48.878;13.316;2023-02-11T05:03:57;95794.41;;;-4.00;100.00
21588;BME280;10956;48.878;13.316;2023-02-11T05:06:22;95781.38;;;-3.88;100.00
21588;BME280;10956;48.878;13.316;2023-02-11T05:08:48;95781.50;;;-3.80;100.00
21588;BME280;10956;48.878;13.316;2023-02-11T05:11:17;95771.44;;;-3.74;100.00
21588;BME280;10956;48.878;13.316;2023-02-11T05:13:42;95778.91;;;-3.71;100.00
21588;BME280;10956;48.878;13.316;2023-02-11T05:16:08;95776.31;;;-3.71;100.00
21588;BME280;10956;48.878;13.316;2023-02-11T05:18:36;95776.31;;;-3.71;100.00
21588;BME280;10956;48.878;13.316;2023-02-11T05:21:06;95772.25;;;-3.73;100.00
21588;BME280;10956;48.878;13.316;2023-02-11T05:23:31;95768.19;;;-3.76;100.00
21588;BME280;10956;48.878;13.316;2023-02-11T05:25:58;95775.25;;;-3.78;100.00
21588;BME280;10956;48.878;13.316;2023-02-11T05:28:23;95765.22;;;-3.81;100.00
21588;BME280;10956;48.878;13.316;2023-02-11T05:30:49;95766.19;;;-3.82;100.00
21588;BME280;10956;48.878;13.316;2023-02-11T05:33:14;95761.69;;;-3.80;100.00
21588;BME280;10956;48.878;13.316;2023-02-11T05:35:39;95767.13;;;-3.83;100.00
21588;BME280;10956;48.878;13.316;2023-02-11T05:38:05;95772.56;;;-3.86;100.00
21588;BME280;10956;48.878;13.316;2023-02-11T05:40:30;95764.84;;;-3.86;100.00
21588;BME280;10956;48.878;13.316;2023-02-11T05:42:56;95764.84;;;-3.86;100.00
21588;BME280;10956;48.878;13.316;2023-02-11T05:45:21;95773.09;;;-3.82;100.00
21588;BME280;10956;48.878;13.316;2023-02-11T05:47:46;95765.22;;;-3.81;100.00
21588;BME280;10956;48.878;13.316;2023-02-11T05:50:12;95770.63;;;-3.74;100.00
21588;BME280;10956;48.878;13.316;2023-02-11T05:52:37;95764.13;;;-3.69;100.00
21588;BME280;10956;48.878;13.316;2023-02-11T05:55:03;95748.09;;;-3.63;100.00
21588;BME280;10956;48.878;13.316;2023-02-11T05:57:28;95759.75;;;-3.59;100.00
21588;BME280;10956;48.878;13.316;2023-02-11T05:59:54;95772.50;;;-3.57;100.00
21588;BME280;10956;48.878;13.316;2023-02-11T06:02:19;95769.09;;;-3.58;100.00
21588;BME280;10956;48.878;13.316;2023-02-11T06:04:45;95779.56;;;-3.69;100.00
21588;BME280;10956;48.878;13.316;2023-02-11T06:07:10;95768.59;;;-3.71;100.00
21588;BME280;10956;48.878;13.316;2023-02-11T06:09:36;95781.47;;;-3.71;100.00
21588;BME280;10956;48.878;13.316;2023-02-11T06:12:01;95779.00;;;-3.63;100.00
21588;BME280;10956;48.878;13.316;2023-02-11T06:14:27;95778.84;;;-3.51;100.00
21588;BME280;10956;48.878;13.316;2023-02-11T06:16:52;95774.34;;;-3.40;100.00
21588;BME280;10956;48.878;13.316;2023-02-11T06:19:18;95771.31;;;-3.35;100.00
21588;BME280;10956;48.878;13.316;2023-02-11T06:21:43;95772.38;;;-3.28;100.00
21588;BME280;10956;48.878;13.316;2023-02-11T06:24:09;95757.72;;;-3.28;100.00
21588;BME280;10956;48.878;13.316;2023-02-11T06:26:34;95747.56;;;-3.29;100.00
21588;BME280;10956;48.878;13.316;2023-02-11T06:28:59;95754.72;;;-3.23;100.00
21588;BME280;10956;48.878;13.316;2023-02-11T06:31:25;95768.00;;;-3.18;100.00
21588;BME280;10956;48.878;13.316;2023-02-11T06:33:51;95769.63;;;-3.17;100.00
21588;BME280;10956;48.878;13.316;2023-02-11T06:36:20;95786.72;;;-3.16;100.00
21588;BME280;10956;48.878;13.316;2023-02-11T06:38:47;95780.88;;;-3.18;100.00
21588;BME280;10956;48.878;13.316;2023-02-11T06:41:14;95784.28;;;-3.17;100.00
21588;BME280;10956;48.878;13.316;2023-02-11T06:43:41;95784.81;;;-3.14;100.00
21588;BME280;10956;48.878;13.316;2023-02-11T06:46:07;95792.66;;;-3.06;100.00
21588;BME280;10956;48.878;13.316;2023-02-11T06:48:33;95798.56;;;-2.96;100.00
21588;BME280;10956;48.878;13.316;2023-02-11T06:51:03;95793.50;;;-2.87;100.00
21588;BME280;10956;48.878;13.316;2023-02-11T06:53:29;95799.56;;;-2.79;100.00
21588;BME280;10956;48.878;13.316;2023-02-11T06:55:54;95792.72;;;-2.70;100.00
21588;BME280;10956;48.878;13.316;2023-02-11T06:58:20;95791.97;;;-2.80;100.00
21588;BME280;10956;48.878;13.316;2023-02-11T07:00:45;95797.72;;;-2.86;100.00
21588;BME280;10956;48.878;13.316;2023-02-11T07:03:11;95795.41;;;-2.89;100.00
21588;BME280;10956;48.878;13.316;2023-02-11T07:05:36;95786.06;;;-2.90;100.00
21588;BME280;10956;48.878;13.316;2023-02-11T07:08:03;95789.59;;;-2.91;100.00
21588;BME280;10956;48.878;13.316;2023-02-11T07:10:28;95787.09;;;-2.83;100.00
21588;BME280;10956;48.878;13.316;2023-02-11T07:12:54;95786.22;;;-2.74;100.00
21588;BME280;10956;48.878;13.316;2023-02-11T07:15:19;95793.41;;;-2.68;100.00
21588;BME280;10956;48.878;13.316;2023-02-11T07:17:44;95791.41;;;-2.74;100.00
21588;BME280;10956;48.878;13.316;2023-02-11T07:20:10;95794.94;;;-2.75;100.00
21588;BME280;10956;48.878;13.316;2023-02-11T07:22:38;95804.16;;;-2.73;100.00
21588;BME280;10956;48.878;13.316;2023-02-11T07:25:04;95804.69;;;-2.69;100.00
21588;BME280;10956;48.878;13.316;2023-02-11T07:27:30;95799.88;;;-2.64;100.00
21588;BME280;10956;48.878;13.316;2023-02-11T07:29:55;95794.81;;;-2.56;100.00
21588;BME280;10956;48.878;13.316;2023-02-11T07:32:20;95804.25;;;-2.47;100.00
21588;BME280;10956;48.878;13.316;2023-02-11T07:34:46;95800.44;;;-2.43;100.00
21588;BME280;10956;48.878;13.316;2023-02-11T07:37:12;95799.63;;;-2.43;100.00
21588;BME280;10956;48.878;13.316;2023-02-11T07:39:38;95799.31;;;-2.40;100.00
21588;BME280;10956;48.878;13.316;2023-02-11T07:42:03;95801.75;;;-2.39;100.00
21588;BME280;10956;48.878;13.316;2023-02-11T07:44:29;95801.19;;;-2.33;100.00
21588;BME280;10956;48.878;13.316;2023-02-11T07:46:54;95806.72;;;-2.28;100.00
21588;BME280;10956;48.878;13.316;2023-02-11T07:49:20;95794.53;;;-2.17;100.00
21588;BME280;10956;48.878;13.316;2023-02-11T07:51:45;95792.75;;;-1.99;100.00
21588;BME280;10956;48.878;13.316;2023-02-11T07:54:12;95796.63;;;-1.77;100.00
21588;BME280;10956;48.878;13.316;2023-02-11T07:56:37;95782.03;;;-1.60;100.00
21588;BME280;10956;48.878;13.316;2023-02-11T07:59:02;95777.94;;;-1.45;100.00
21588;BME280;10956;48.878;13.316;2023-02-11T08:01:29;95779.72;;;-1.46;100.00
21588;BME280;10956;48.878;13.316;2023-02-11T08:03:56;95784.22;;;-1.48;100.00
21588;BME280;10956;48.878;13.316;2023-02-11T08:06:23;95784.69;;;-1.52;100.00
21588;BME280;10956;48.878;13.316;2023-02-11T08:08:49;95794.38;;;-1.54;100.00
21588;BME280;10956;48.878;13.316;2023-02-11T08:11:27;95798.88;;;-1.56;100.00
21588;BME280;10956;48.878;13.316;2023-02-11T08:13:53;95798.66;;;-1.63;100.00
21588;BME280;10956;48.878;13.316;2023-02-11T08:16:26;95801.41;;;-1.65;100.00
21588;BME280;10956;48.878;13.316;2023-02-11T08:18:54;95787.31;;;-1.70;100.00
21588;BME280;10956;48.878;13.316;2023-02-11T08:21:20;95795.53;;;-1.75;100.00
21588;BME280;10956;48.878;13.316;2023-02-11T08:23:45;95789.75;;;-1.69;100.00
21588;BME280;10956;48.878;13.316;2023-02-11T08:26:14;95776.22;;;-1.63;100.00
21588;BME280;10956;48.878;13.316;2023-02-11T08:28:41;95785.13;;;-1.57;100.00
21588;BME280;10956;48.878;13.316;2023-02-11T08:31:16;95772.16;;;-1.39;100.00
21588;BME280;10956;48.878;13.316;2023-02-11T08:33:42;95769.59;;;-1.31;100.00
21588;BME280;10956;48.878;13.316;2023-02-11T08:36:14;95777.75;;;-1.18;100.00
21588;BME280;10956;48.878;13.316;2023-02-11T08:38:40;95780.75;;;-0.96;100.00
21588;BME280;10956;48.878;13.316;2023-02-11T08:41:06;95788.25;;;-0.85;100.00
21588;BME280;10956;48.878;13.316;2023-02-11T08:43:31;95781.81;;;-0.73;100.00
21588;BME280;10956;48.878;13.316;2023-02-11T08:45:57;95782.50;;;-0.55;100.00
21588;BME280;10956;48.878;13.316;2023-02-11T08:48:23;95778.81;;;-0.36;100.00
21588;BME280;10956;48.878;13.316;2023-02-11T08:50:49;95783.22;;;-0.20;99.25
21588;BME280;10956;48.878;13.316;2023-02-11T08:53:14;95768.97;;;-0.16;98.87
21588;BME280;10956;48.878;13.316;2023-02-11T08:55:39;95776.75;;;-0.08;98.96
21588;BME280;10956;48.878;13.316;2023-02-11T08:58:05;95780.31;;;0.07;98.49
21588;BME280;10956;48.878;13.316;2023-02-11T09:00:30;95782.25;;;0.21;97.88
21588;BME280;10956;48.878;13.316;2023-02-11T09:02:56;95793.91;;;0.34;97.11
21588;BME280;10956;48.878;13.316;2023-02-11T09:05:21;95769.28;;;0.46;96.91
21588;BME280;10956;48.878;13.316;2023-02-11T09:07:47;95755.63;;;0.60;96.20
21588;BME280;10956;48.878;13.316;2023-02-11T09:10:13;95771.47;;;0.73;96.14
21588;BME280;10956;48.878;13.316;2023-02-11T09:12:38;95771.63;;;0.80;95.76
21588;BME280;10956;48.878;13.316;2023-02-11T09:15:04;95769.81;;;0.88;95.73
21588;BME280;10956;48.878;13.316;2023-02-11T09:17:29;95781.78;;;0.98;95.43
21588;BME280;10956;48.878;13.316;2023-02-11T09:19:55;95778.84;;;1.01;95.18
21588;BME280;10956;48.878;13.316;2023-02-11T09:22:20;95777.25;;;0.91;95.63
21588;BME280;10956;48.878;13.316;2023-02-11T09:24:45;95777.44;;;0.90;95.98
21588;BME280;10956;48.878;13.316;2023-02-11T09:27:11;95793.50;;;0.93;96.17
21588;BME280;10956;48.878;13.316;2023-02-11T09:29:36;95792.69;;;0.93;96.34
21588;BME280;10956;48.878;13.316;2023-02-11T09:32:02;95801.78;;;0.89;96.53
21588;BME280;10956;48.878;13.316;2023-02-11T09:34:27;95800.16;;;0.88;96.62
21588;BME280;10956;48.878;13.316;2023-02-11T09:36:52;95796.09;;;0.85;97.38
21588;BME280;10956;48.878;13.316;2023-02-11T09:39:18;95806.81;;;0.82;97.45
21588;BME280;10956;48.878;13.316;2023-02-11T09:44:43;95806.84;;;0.66;98.68
21588;BME280;10956;48.878;13.316;2023-02-11T09:47:24;95802.00;;;0.63;98.95
21588;BME280;10956;48.878;13.316;2023-02-11T09:50:02;95791.63;;;0.63;99.38
21588;BME280;10956;48.878;13.316;2023-02-11T09:55:20;95797.13;;;0.60;99.73
21588;BME280;10956;48.878;13.316;2023-02-11T09:57:46;95789.81;;;0.63;99.77
21588;BME280;10956;48.878;13.316;2023-02-11T10:00:31;95787.38;;;0.70;99.60
21588;BME280;10956;48.878;13.316;2023-02-11T10:06:01;95769.44;;;1.00;98.55
21588;BME280;10956;48.878;13.316;2023-02-11T10:08:41;95759.34;;;1.13;97.44
21588;BME280;10956;48.878;13.316;2023-02-11T10:11:40;95778.75;;;1.25;97.49
21588;BME280;10956;48.878;13.316;2023-02-11T10:14:27;95771.78;;;1.25;97.27
21588;BME280;10956;48.878;13.316;2023-02-11T10:22:48;95772.75;;;1.55;96.13
21588;BME280;10956;48.878;13.316;2023-02-11T10:25:44;95761.22;;;1.58;96.15
21588;BME280;10956;48.878;13.316;2023-02-11T10:28:23;95768.78;;;1.68;95.68
21588;BME280;10956;48.878;13.316;2023-02-11T10:30:57;95764.22;;;1.70;95.54
21588;BME280;10956;48.878;13.316;2023-02-11T10:33:45;95755.00;;;1.67;95.95
21588;BME280;10956;48.878;13.316;2023-02-11T10:36:13;95760.69;;;1.63;96.42
21588;BME280;10956;48.878;13.316;2023-02-11T10:38:39;95764.91;;;1.64;96.57
21588;BME280;10956;48.878;13.316;2023-02-11T10:41:05;95760.31;;;1.74;96.51
21588;BME280;10956;48.878;13.316;2023-02-11T10:43:31;95761.22;;;1.81;96.36
21588;BME280;10956;48.878;13.316;2023-02-11T10:45:58;95749.78;;;1.90;95.71
21588;BME280;10956;48.878;13.316;2023-02-11T10:48:45;95744.47;;;2.06;95.38
21588;BME280;10956;48.878;13.316;2023-02-11T10:53:42;95734.31;;;2.49;93.19
21588;BME280;10956;48.878;13.316;2023-02-11T10:56:11;95730.38;;;2.53;92.53
21588;BME280;10956;48.878;13.316;2023-02-11T10:58:54;95728.16;;;2.65;92.33
21588;BME280;10956;48.878;13.316;2023-02-11T11:01:20;95729.50;;;2.75;92.09
21588;BME280;10956;48.878;13.316;2023-02-11T11:03:49;95720.34;;;2.79;92.01
21588;BME280;10956;48.878;13.316;2023-02-11T11:06:28;95731.38;;;2.96;91.04
21588;BME280;10956;48.878;13.316;2023-02-11T11:08:55;95726.06;;;3.19;90.36
21588;BME280;10956;48.878;13.316;2023-02-11T11:11:21;95722.31;;;3.43;89.36
21588;BME280;10956;48.878;13.316;2023-02-11T11:13:56;95726.13;;;3.62;88.61
21588;BME280;10956;48.878;13.316;2023-02-11T11:26:48;95714.53;;;3.85;87.90
21588;BME280;10956;48.878;13.316;2023-02-11T11:29:37;95703.16;;;3.93;87.77
21588;BME280;10956;48.878;13.316;2023-02-11T11:32:26;95708.38;;;3.93;87.39
21588;BME280;10956;48.878;13.316;2023-02-11T11:34:59;95698.31;;;3.90;87.30
21588;BME280;10956;48.878;13.316;2023-02-11T11:39:56;95692.09;;;3.70;88.03
21588;BME280;10956;48.878;13.316;2023-02-11T11:42:36;95694.59;;;3.78;88.59
21588;BME280;10956;48.878;13.316;2023-02-11T11:45:17;95690.81;;;3.80;88.01
21588;BME280;10956;48.878;13.316;2023-02-11T11:50:43;95686.75;;;3.99;87.51
21588;BME280;10956;48.878;13.316;2023-02-11T11:56:04;95673.16;;;4.04;87.43
21588;BME280;10956;48.878;13.316;2023-02-11T11:58:32;95681.16;;;4.02;87.89
21588;BME280;10956;48.878;13.316;2023-02-11T12:06:56;95693.03;;;3.62;88.71
21588;BME280;10956;48.878;13.316;2023-02-11T12:17:30;95684.03;;;3.65;89.35
21588;BME280;10956;48.878;13.316;2023-02-11T12:39:28;95647.75;;;3.91;86.99
21588;BME280;10956;48.878;13.316;2023-02-11T12:55:42;95637.72;;;3.88;87.37
21588;BME280;10956;48.878;13.316;2023-02-11T12:58:16;95644.53;;;3.89;87.24
21588;BME280;10956;48.878;13.316;2023-02-11T13:00:50;95636.38;;;3.99;87.12
21588;BME280;10956;48.878;13.316;2023-02-11T13:05:48;95641.78;;;3.97;87.17
21588;BME280;10956;48.878;13.316;2023-02-11T13:11:02;95650.81;;;3.73;87.92
21588;BME280;10956;48.878;13.316;2023-02-11T13:13:57;95635.19;;;3.73;88.89
21588;BME280;10956;48.878;13.316;2023-02-11T13:16:39;95639.22;;;3.76;88.53
21588;BME280;10956;48.878;13.316;2023-02-11T13:19:28;95644.81;;;3.73;88.46
21588;BME280;10956;48.878;13.316;2023-02-11T13:22:17;95649.59;;;3.69;88.88
21588;BME280;10956;48.878;13.316;2023-02-11T13:35:31;95636.59;;;3.76;89.48
21588;BME280;10956;48.878;13.316;2023-02-11T13:37:58;95626.03;;;3.84;89.38
21588;BME280;10956;48.878;13.316;2023-02-11T13:40:35;95623.47;;;3.91;88.96
21588;BME280;10956;48.878;13.316;2023-02-11T13:43:03;95631.94;;;3.93;89.24
21588;BME280;10956;48.878;13.316;2023-02-11T13:45:30;95641.75;;;3.91;89.13
21588;BME280;10956;48.878;13.316;2023-02-11T13:47:59;95633.28;;;3.88;89.51
21588;BME280;10956;48.878;13.316;2023-02-11T13:50:26;95638.94;;;3.92;89.40
21588;BME280;10956;48.878;13.316;2023-02-11T13:53:00;95629.13;;;3.94;89.53
21588;BME280;10956;48.878;13.316;2023-02-11T13:55:26;95622.31;;;3.93;89.45
21588;BME280;10956;48.878;13.316;2023-02-11T14:06:24;95617.63;;;3.61;91.47
21588;BME280;10956;48.878;13.316;2023-02-11T14:14:21;95637.00;;;3.51;92.59
21588;BME280;10956;48.878;13.316;2023-02-11T14:19:40;95629.41;;;3.56;92.90
21588;BME280;10956;48.878;13.316;2023-02-11T14:22:24;95620.59;;;3.58;93.27
21588;BME280;10956;48.878;13.316;2023-02-11T14:24:55;95620.00;;;3.55;93.75
21588;BME280;10956;48.878;13.316;2023-02-11T14:27:26;95617.75;;;3.52;94.03
21588;BME280;10956;48.878;13.316;2023-02-11T14:30:28;95616.88;;;3.45;94.16
21588;BME280;10956;48.878;13.316;2023-02-11T14:41:07;95616.00;;;3.17;96.59
21588;BME280;10956;48.878;13.316;2023-02-11T14:43:44;95613.41;;;3.17;96.80
21588;BME280;10956;48.878;13.316;2023-02-11T14:46:14;95629.03;;;3.17;97.05
21588;BME280;10956;48.878;13.316;2023-02-11T14:48:44;95628.03;;;3.18;97.19
21588;BME280;10956;48.878;13.316;2023-02-11T14:51:26;95630.59;;;3.11;97.65
21588;BME280;10956;48.878;13.316;2023-02-11T14:53:55;95638.22;;;3.13;97.85
21588;BME280;10956;48.878;13.316;2023-02-11T14:56:27;95641.81;;;3.12;97.95
21588;BME280;10956;48.878;13.316;2023-02-11T14:58:55;95632.50;;;3.03;98.44
21588;BME280;10956;48.878;13.316;2023-02-11T15:01:28;95626.75;;;2.92;99.85
21588;BME280;10956;48.878;13.316;2023-02-11T15:03:55;95624.78;;;2.95;100.00
21588;BME280;10956;48.878;13.316;2023-02-11T15:06:25;95619.56;;;2.95;100.00
21588;BME280;10956;48.878;13.316;2023-02-11T15:08:56;95615.88;;;3.04;99.70
21588;BME280;10956;48.878;13.316;2023-02-11T15:11:26;95603.22;;;3.01;99.83
21588;BME280;10956;48.878;13.316;2023-02-11T15:14:00;95602.78;;;2.97;100.00
21588;BME280;10956;48.878;13.316;2023-02-11T15:16:30;95611.88;;;2.86;100.00
21588;BME280;10956;48.878;13.316;2023-02-11T15:19:01;95604.63;;;2.82;100.00
21588;BME280;10956;48.878;13.316;2023-02-11T15:21:30;95608.28;;;2.87;100.00
21588;BME280;10956;48.878;13.316;2023-02-11T15:24:22;95605.50;;;2.89;100.00
21588;BME280;10956;48.878;13.316;2023-02-11T15:27:02;95619.44;;;2.81;100.00
21588;BME280;10956;48.878;13.316;2023-02-11T15:29:38;95620.34;;;2.74;100.00
21588;BME280;10956;48.878;13.316;2023-02-11T15:32:05;95623.50;;;2.69;100.00